Terminal Aerodrome Forecast
Issued by NWS

Current Version | Previous Version | Graphics & Text | Print | Product List | Glossary On
Versions: 1 2 3 4 5 6 7 8 9 10 11 12 13 14 15 16 17 18 19
435
FTUS41 KPBZ 011736
TAFHLG
TAF
KHLG 011736Z 0118/0218 27014G20KT P6SM OVC025
     FM012300 25010KT P6SM OVC035
     FM020700 26007KT P6SM OVC015
     FM021500 26011G18KT P6SM OVC025=

USA.gov is the U.S. government's official web portal to all federal, state and local government web resources and services.